createdAt,value
2018-02-01T00:00:55.125Z,13.35
2018-02-01T00:01:59.295Z,13.82
2018-02-01T00:03:03.475Z,14.25
2018-02-01T00:04:07.681Z,14.30
2018-02-01T00:05:12.084Z,14.27
2018-02-01T00:06:16.762Z,15.67
2018-02-01T00:07:21.708Z,14.93
2018-02-01T00:08:26.663Z,14.77
2018-02-01T00:09:30.835Z,16.52
2018-02-01T00:10:36.173Z,15.20
2018-02-01T00:11:41.803Z,14.90
2018-02-01T00:12:46.897Z,15.73
2018-02-01T00:13:51.159Z,16.10
2018-02-01T00:14:56.133Z,15.75
2018-02-01T00:16:00.396Z,17.70
2018-02-01T00:17:05.389Z,17.08
2018-02-01T00:18:10.166Z,17.10
2018-02-01T00:19:14.534Z,16.17
2018-02-01T00:20:18.994Z,15.00
2018-02-01T00:21:23.242Z,16.03
2018-02-01T00:22:27.443Z,16.27
2018-02-01T00:23:31.627Z,17.40
2018-02-01T00:24:35.809Z,16.30
2018-02-01T00:25:40.347Z,15.40
2018-02-01T00:26:45.256Z,13.50
2018-02-01T00:27:50.299Z,15.13
2018-02-01T00:28:55.263Z,12.85
2018-02-01T00:29:59.482Z,13.00
2018-02-01T00:31:03.692Z,13.30
2018-02-01T00:32:08.144Z,13.43
2018-02-01T00:33:12.501Z,12.55
2018-02-01T00:34:16.781Z,12.75
2018-02-01T00:35:21.952Z,12.65
2018-02-01T00:36:27.035Z,11.52
2018-02-01T00:37:31.227Z,10.93
2018-02-01T00:38:35.411Z,12.40
2018-02-01T00:39:39.966Z,11.82
2018-02-01T00:40:44.925Z,10.82
2018-02-01T00:41:50.241Z,11.90
2018-02-01T00:42:54.449Z,10.40
2018-02-01T00:43:58.631Z,11.87
2018-02-01T00:45:02.842Z,10.07
2018-02-01T00:46:07.127Z,11.18
2018-02-01T00:47:11.397Z,9.68
2018-02-01T00:48:15.788Z,10.50
2018-02-01T00:49:20.951Z,10.13
2018-02-01T00:50:25.129Z,10.88
2018-02-01T00:51:29.309Z,11.10
2018-02-01T00:52:33.478Z,11.40
2018-02-01T00:53:37.652Z,12.52
2018-02-01T00:54:42.783Z,11.75
2018-02-01T00:55:47.381Z,12.00
2018-02-01T00:56:51.591Z,12.77
2018-02-01T00:57:55.801Z,13.68
2018-02-01T00:58:59.976Z,13.40
2018-02-01T01:00:05.123Z,13.40
2018-02-01T01:01:10.487Z,14.98
2018-02-01T01:02:14.790Z,15.55
2018-02-01T01:03:19.088Z,14.40
2018-02-01T01:04:24.029Z,17.47
2018-02-01T01:05:28.270Z,14.52
2018-02-01T01:06:32.516Z,14.40
2018-02-01T01:07:36.696Z,14.75
2018-02-01T01:08:41.468Z,16.65
2018-02-01T01:09:46.007Z,17.00
2018-02-01T01:10:50.361Z,16.15
2018-02-01T01:11:54.805Z,15.07
2018-02-01T01:12:59.781Z,14.80
2018-02-01T01:14:04.001Z,16.27
2018-02-01T01:15:08.226Z,16.55
2018-02-01T01:16:13.810Z,18.37
2018-02-01T01:17:18.789Z,17.30
2018-02-01T01:18:22.987Z,16.93
2018-02-01T01:19:27.181Z,18.40
2018-02-01T01:20:31.361Z,18.87
2018-02-01T01:21:36.352Z,16.93
2018-02-01T01:22:40.941Z,17.15
2018-02-01T01:23:45.234Z,16.60
2018-02-01T01:24:49.454Z,19.25
2018-02-01T01:25:53.642Z,17.52
2018-02-01T01:26:58.644Z,17.60
2018-02-01T01:28:02.819Z,17.43
2018-02-01T01:29:06.991Z,17.65
2018-02-01T01:30:12.277Z,18.45
2018-02-01T01:31:16.626Z,17.52
2018-02-01T01:32:21.284Z,17.87
2018-02-01T01:33:25.496Z,16.62
2018-02-01T01:34:29.730Z,18.23
2018-02-01T01:35:33.917Z,16.58
2018-02-01T01:36:38.189Z,17.60
2018-02-01T01:37:43.426Z,16.95
2018-02-01T01:38:48.525Z,17.25
2018-02-01T01:39:52.908Z,18.42
2018-02-01T01:40:57.120Z,16.70
2018-02-01T01:42:01.331Z,18.13
2018-02-01T01:43:05.542Z,16.77
2018-02-01T01:44:09.847Z,14.77
2018-02-01T01:45:14.713Z,16.12
2018-02-01T01:46:18.994Z,15.80
2018-02-01T01:47:23.251Z,15.00
2018-02-01T01:48:27.428Z,15.47
2018-02-01T01:49:31.622Z,14.75
2018-02-01T01:50:35.814Z,14.33
2018-02-01T01:51:41.064Z,14.90
2018-02-01T01:52:45.425Z,15.25
2018-02-01T01:53:49.693Z,14.40
2018-02-01T01:54:53.871Z,13.10
2018-02-01T01:55:58.058Z,14.43
2018-02-01T01:57:02.271Z,14.23
2018-02-01T01:58:06.487Z,14.52
2018-02-01T01:59:11.275Z,13.82
2018-02-01T02:00:15.771Z,14.13
2018-02-01T02:01:20.196Z,14.48
2018-02-01T02:02:24.500Z,15.57
2018-02-01T02:03:29.460Z,13.60
2018-02-01T02:04:33.648Z,14.02
2018-02-01T02:05:37.819Z,12.68
2018-02-01T02:06:43.059Z,14.70
2018-02-01T02:07:47.356Z,14.60
2018-02-01T02:08:51.693Z,12.43
2018-02-01T02:09:56.696Z,12.32
2018-02-01T02:11:00.871Z,11.15
2018-02-01T02:12:05.071Z,13.55
2018-02-01T02:13:09.585Z,13.55
2018-02-01T02:14:14.526Z,11.98
2018-02-01T02:15:18.931Z,11.95
2018-02-01T02:16:23.219Z,12.43
2018-02-01T02:17:28.165Z,13.05
2018-02-01T02:18:32.382Z,13.02
2018-02-01T02:19:36.662Z,11.20
2018-02-01T02:20:41.145Z,11.93
2018-02-01T02:21:46.586Z,11.25
2018-02-01T02:22:50.966Z,12.45
2018-02-01T02:23:55.252Z,12.00
2018-02-01T02:25:00.221Z,11.93
2018-02-01T02:26:04.411Z,9.90
2018-02-01T02:27:08.609Z,10.27
2018-02-01T02:28:13.027Z,10.05
2018-02-01T02:29:17.359Z,12.02
2018-02-01T02:30:21.593Z,10.30
2018-02-01T02:31:25.788Z,11.10
2018-02-01T02:32:30.016Z,9.57
2018-02-01T02:33:34.196Z,10.40
2018-02-01T02:34:38.621Z,10.70
2018-02-01T02:35:43.130Z,9.52
2018-02-01T02:36:48.074Z,8.48
2018-02-01T02:37:52.260Z,8.88
2018-02-01T02:38:57.283Z,8.40
2018-02-01T02:40:02.291Z,8.25
2018-02-01T02:41:06.486Z,9.30
2018-02-01T02:42:10.863Z,8.70
2018-02-01T02:43:15.088Z,7.97
2018-02-01T02:44:19.296Z,8.90
2018-02-01T02:45:24.460Z,9.80
2018-02-01T02:46:28.662Z,8.70
2018-02-01T02:47:33.015Z,8.05
2018-02-01T02:48:37.998Z,8.05
2018-02-01T02:49:42.307Z,9.43
2018-02-01T02:50:46.690Z,6.70
2018-02-01T02:51:51.826Z,8.00
2018-02-01T02:52:55.998Z,8.70
2018-02-01T02:54:00.222Z,8.68
2018-02-01T02:55:05.177Z,6.95
2018-02-01T02:56:10.309Z,6.93
2018-02-01T02:57:14.772Z,7.80
2018-02-01T02:58:20.089Z,7.70
2018-02-01T02:59:24.259Z,8.25
2018-02-01T03:00:28.432Z,7.72
2018-02-01T03:01:32.750Z,8.17
2018-02-01T03:02:38.430Z,7.40
2018-02-01T03:03:44.082Z,8.45
2018-02-01T03:04:48.932Z,7.60
2018-02-01T03:05:53.116Z,7.47
2018-02-01T03:06:57.431Z,7.95
2018-02-01T03:08:01.634Z,7.40
2018-02-01T03:09:05.824Z,8.32
2018-02-01T03:10:12.017Z,7.45
2018-02-01T03:11:18.477Z,7.65
2018-02-01T03:12:22.718Z,7.43
2018-02-01T03:13:26.901Z,8.05
2018-02-01T03:14:31.102Z,7.17
2018-02-01T03:15:35.305Z,7.12
2018-02-01T03:16:39.954Z,7.35
2018-02-01T03:17:44.412Z,8.27
2018-02-01T03:18:49.889Z,7.28
2018-02-01T03:19:54.118Z,6.83
2018-02-01T03:20:58.396Z,6.75
2018-02-01T03:22:03.423Z,7.90
2018-02-01T03:23:08.383Z,7.40
2018-02-01T03:24:13.538Z,8.00
2018-02-01T03:25:17.731Z,6.63
2018-02-01T03:26:22.129Z,9.10
2018-02-01T03:27:26.343Z,7.12
2018-02-01T03:28:30.511Z,7.90
2018-02-01T03:29:34.812Z,6.87
2018-02-01T03:30:39.005Z,7.00
2018-02-01T03:31:44.112Z,7.10
2018-02-01T03:32:49.020Z,7.32
2018-02-01T03:33:53.321Z,7.50
2018-02-01T03:34:58.259Z,7.10
2018-02-01T03:36:03.208Z,6.85
2018-02-01T03:37:07.418Z,6.57
2018-02-01T03:38:12.231Z,7.23
2018-02-01T03:39:16.512Z,7.30
2018-02-01T03:40:20.730Z,7.20
2018-02-01T03:41:24.925Z,8.63
2018-02-01T03:42:29.103Z,9.20
2018-02-01T03:43:33.315Z,8.00
2018-02-01T03:44:37.477Z,8.70
2018-02-01T03:45:43.428Z,9.43
2018-02-01T03:46:48.366Z,8.40
2018-02-01T03:47:52.686Z,8.38
2018-02-01T03:48:56.903Z,7.68
2018-02-01T03:50:01.104Z,8.20
2018-02-01T03:51:06.043Z,8.80
2018-02-01T03:52:10.344Z,8.15
2018-02-01T03:53:15.287Z,7.35
2018-02-01T03:54:19.506Z,8.57
2018-02-01T03:55:23.793Z,8.48
2018-02-01T03:56:28.042Z,8.95
2018-02-01T03:57:32.234Z,8.70
2018-02-01T03:58:36.461Z,7.93
2018-02-01T03:59:42.063Z,9.30
2018-02-01T04:00:46.456Z,8.37
2018-02-01T04:01:51.385Z,10.27
2018-02-01T04:02:55.565Z,8.45
2018-02-01T04:03:59.760Z,8.07
2018-02-01T04:05:03.947Z,8.40
2018-02-01T04:06:08.154Z,8.50
2018-02-01T04:07:13.392Z,8.48
2018-02-01T04:08:17.909Z,7.75
2018-02-01T04:09:22.297Z,8.50
2018-02-01T04:10:26.490Z,8.57
2018-02-01T04:11:30.680Z,8.43
2018-02-01T04:12:34.966Z,7.80
2018-02-01T04:13:40.171Z,8.50
2018-02-01T04:14:44.919Z,7.82
2018-02-01T04:15:49.187Z,7.57
2018-02-01T04:16:53.362Z,8.10
2018-02-01T04:17:57.594Z,7.72
2018-02-01T04:19:01.790Z,7.78
2018-02-01T04:20:06.010Z,7.95
2018-02-01T04:21:11.117Z,8.03
2018-02-01T04:22:15.846Z,8.00
2018-02-01T04:23:20.206Z,7.32
2018-02-01T04:24:24.419Z,7.70
2018-02-01T04:25:28.583Z,7.12
2018-02-01T04:26:32.786Z,7.30
2018-02-01T04:27:36.980Z,7.68
2018-02-01T04:28:41.693Z,9.07
2018-02-01T04:29:46.295Z,8.73
2018-02-01T04:30:51.004Z,7.18
2018-02-01T04:31:55.184Z,7.60
2018-02-01T04:32:59.404Z,7.95
2018-02-01T04:34:03.628Z,6.70
2018-02-01T04:35:07.809Z,6.77
2018-02-01T04:36:12.139Z,7.75
2018-02-01T04:37:17.063Z,6.90
2018-02-01T04:38:22.060Z,7.57
2018-02-01T04:39:26.267Z,7.20
2018-02-01T04:40:30.464Z,7.40
2018-02-01T04:41:35.459Z,6.95
2018-02-01T04:42:39.937Z,9.35
2018-02-01T04:43:44.513Z,7.55
2018-02-01T04:44:48.814Z,7.65
2018-02-01T04:45:53.792Z,6.85
2018-02-01T04:46:57.987Z,7.30
2018-02-01T04:48:02.944Z,7.30
2018-02-01T04:49:07.182Z,6.65
2018-02-01T04:50:11.761Z,7.93
2018-02-01T04:51:16.409Z,8.10
2018-02-01T04:52:20.676Z,9.00
2018-02-01T04:53:25.667Z,8.75
2018-02-01T04:54:30.256Z,9.63
2018-02-01T04:55:34.439Z,8.87
2018-02-01T04:56:38.650Z,8.75
2018-02-01T04:57:43.154Z,9.75
2018-02-01T04:58:47.509Z,9.68
2018-02-01T04:59:52.133Z,12.73
2018-02-01T05:00:56.350Z,10.82
2018-02-01T05:02:00.608Z,10.30
2018-02-01T05:03:05.584Z,10.82
2018-02-01T05:04:10.401Z,10.00
2018-02-01T05:05:14.873Z,11.20
2018-02-01T05:06:20.260Z,13.00
2018-02-01T05:07:24.530Z,12.30
2018-02-01T05:08:29.533Z,12.93
2018-02-01T05:09:33.738Z,15.13
2018-02-01T05:10:37.970Z,13.15
2018-02-01T05:11:42.327Z,13.80
2018-02-01T05:12:46.684Z,15.32
2018-02-01T05:13:50.914Z,14.47
2018-02-01T05:14:55.896Z,16.10
2018-02-01T05:16:00.115Z,17.33
2018-02-01T05:17:04.315Z,16.98
2018-02-01T05:18:08.954Z,16.35
2018-02-01T05:19:13.994Z,16.97
2018-02-01T05:20:19.048Z,17.70
2018-02-01T05:21:23.219Z,16.90
2018-02-01T05:22:27.438Z,18.58
2018-02-01T05:23:32.022Z,20.50
2018-02-01T05:24:36.238Z,20.05
2018-02-01T05:25:40.748Z,18.80
2018-02-01T05:26:45.289Z,21.45
2018-02-01T05:27:49.629Z,20.73
2018-02-01T05:28:54.189Z,22.17
2018-02-01T05:29:59.177Z,19.77
2018-02-01T05:31:03.360Z,20.10
2018-02-01T05:32:07.593Z,21.83
2018-02-01T05:33:12.261Z,18.95
2018-02-01T05:34:17.607Z,20.50
2018-02-01T05:35:22.179Z,18.75
2018-02-01T05:36:26.388Z,19.20
2018-02-01T05:37:30.588Z,20.02
2018-02-01T05:38:34.804Z,21.27
2018-02-01T05:39:39.675Z,21.75
2018-02-01T05:40:46.006Z,19.17
2018-02-01T05:41:50.356Z,20.27
2018-02-01T05:42:54.575Z,20.70
2018-02-01T05:43:58.753Z,19.20
2018-02-01T05:45:03.803Z,18.90
2018-02-01T05:46:07.970Z,18.70
2018-02-01T05:47:12.964Z,18.50
2018-02-01T05:48:17.666Z,18.20
2018-02-01T05:49:22.058Z,17.43
2018-02-01T05:50:27.417Z,16.87
2018-02-01T05:51:31.630Z,18.25
2018-02-01T05:52:35.837Z,16.35
2018-02-01T05:53:40.989Z,16.58
2018-02-01T05:54:46.388Z,18.25
2018-02-01T05:55:51.478Z,14.83
2018-02-01T05:56:55.734Z,16.08
2018-02-01T05:58:00.719Z,16.02
2018-02-01T05:59:04.906Z,15.18
2018-02-01T06:00:09.155Z,13.45
2018-02-01T06:01:13.561Z,15.73
2018-02-01T06:02:18.348Z,14.57
2018-02-01T06:03:22.541Z,14.80
2018-02-01T06:04:27.497Z,14.95
2018-02-01T06:05:31.700Z,14.30
2018-02-01T06:06:36.000Z,15.23
2018-02-01T06:07:42.298Z,14.40
2018-02-01T06:08:47.030Z,15.00
2018-02-01T06:09:51.688Z,14.82
2018-02-01T06:10:56.637Z,14.60
2018-02-01T06:12:00.835Z,13.02
2018-02-01T06:13:05.823Z,13.80
2018-02-01T06:14:10.231Z,13.77
2018-02-01T06:15:14.676Z,14.35
2018-02-01T06:16:20.273Z,13.87
2018-02-01T06:17:24.491Z,12.52
2018-02-01T06:18:28.736Z,13.40
2018-02-01T06:19:32.917Z,13.05
2018-02-01T06:20:37.155Z,12.48
2018-02-01T06:21:43.028Z,13.77
2018-02-01T06:22:48.021Z,12.77
2018-02-01T06:23:52.431Z,11.77
2018-02-01T06:24:56.613Z,11.55
2018-02-01T06:26:00.860Z,12.25
2018-02-01T06:27:05.028Z,12.00
2018-02-01T06:28:09.371Z,11.50
2018-02-01T06:29:14.461Z,11.12
2018-02-01T06:30:19.855Z,10.88
2018-02-01T06:31:24.091Z,12.33
2018-02-01T06:32:29.104Z,11.88
2018-02-01T06:33:33.299Z,11.90
2018-02-01T06:34:37.553Z,12.57
2018-02-01T06:35:42.648Z,11.90
2018-02-01T06:36:47.884Z,13.02
2018-02-01T06:37:52.124Z,11.57
2018-02-01T06:38:57.075Z,12.25
2018-02-01T06:40:01.291Z,10.20
2018-02-01T06:41:05.493Z,10.50
2018-02-01T06:42:09.748Z,10.70
2018-02-01T06:43:15.574Z,11.48
2018-02-01T06:44:21.346Z,10.73
2018-02-01T06:45:25.520Z,9.35
2018-02-01T06:46:29.760Z,10.40
2018-02-01T06:47:33.969Z,10.57
2018-02-01T06:48:38.269Z,10.60
2018-02-01T06:49:42.749Z,11.48
2018-02-01T06:50:47.136Z,11.57
2018-02-01T06:51:51.433Z,11.80
2018-02-01T06:52:55.716Z,11.73
2018-02-01T06:53:59.958Z,10.05
2018-02-01T06:55:04.208Z,12.05
2018-02-01T06:56:09.821Z,10.10
2018-02-01T06:57:14.393Z,10.27
2018-02-01T06:58:19.061Z,10.33
2018-02-01T06:59:23.264Z,10.00
2018-02-01T07:00:27.480Z,10.05
2018-02-01T07:01:31.668Z,9.67
2018-02-01T07:02:35.864Z,10.17
2018-02-01T07:03:40.290Z,10.77
2018-02-01T07:04:45.587Z,11.00
2018-02-01T07:05:50.606Z,10.95
2018-02-01T07:06:54.776Z,9.47
2018-02-01T07:07:58.957Z,10.73
2018-02-01T07:09:03.145Z,10.30
2018-02-01T07:10:08.125Z,10.27
2018-02-01T07:11:12.439Z,10.23
2018-02-01T07:12:18.207Z,9.98
2018-02-01T07:13:23.915Z,9.87
2018-02-01T07:14:28.097Z,11.00
2018-02-01T07:15:33.472Z,11.18
2018-02-01T07:16:37.691Z,11.38
2018-02-01T07:17:42.031Z,9.93
2018-02-01T07:18:46.306Z,10.18
2018-02-01T07:19:50.527Z,10.13
2018-02-01T07:20:54.747Z,11.25
2018-02-01T07:21:58.972Z,11.18
2018-02-01T07:23:03.180Z,11.07
2018-02-01T07:24:07.379Z,9.27
2018-02-01T07:25:11.858Z,10.10
2018-02-01T07:26:16.199Z,9.70
2018-02-01T07:27:20.528Z,9.82
2018-02-01T07:28:24.735Z,10.23
2018-02-01T07:29:28.940Z,9.38
2018-02-01T07:30:33.135Z,9.05
2018-02-01T07:31:37.380Z,10.45
2018-02-01T07:32:42.353Z,11.12
2018-02-01T07:33:46.610Z,9.40
2018-02-01T07:34:50.848Z,8.63
2018-02-01T07:35:55.826Z,9.73
2018-02-01T07:37:00.084Z,10.07
2018-02-01T07:38:04.277Z,9.07
2018-02-01T07:39:08.476Z,9.18
2018-02-01T07:40:13.228Z,10.37
2018-02-01T07:41:17.448Z,8.98
2018-02-01T07:42:22.411Z,8.65
2018-02-01T07:43:26.599Z,9.52
2018-02-01T07:44:31.583Z,9.07
2018-02-01T07:45:36.076Z,9.40
2018-02-01T07:46:41.607Z,8.43
2018-02-01T07:47:46.708Z,8.35
2018-02-01T07:48:50.924Z,9.57
2018-02-01T07:49:55.911Z,10.20
2018-02-01T07:51:00.076Z,8.98
2018-02-01T07:52:04.271Z,10.20
2018-02-01T07:53:09.614Z,8.88
2018-02-01T07:54:14.435Z,9.65
2018-02-01T07:55:19.451Z,9.88
2018-02-01T07:56:23.652Z,9.02
2018-02-01T07:57:27.851Z,8.35
2018-02-01T07:58:32.052Z,8.20
2018-02-01T07:59:36.224Z,8.77
2018-02-01T08:00:41.823Z,9.10
2018-02-01T08:01:46.547Z,8.32
2018-02-01T08:02:51.574Z,8.27
2018-02-01T08:03:55.837Z,8.13
2018-02-01T08:05:00.052Z,8.50
2018-02-01T08:06:04.288Z,7.83
2018-02-01T08:07:08.548Z,8.07
2018-02-01T08:08:13.258Z,7.95
2018-02-01T08:09:17.544Z,7.50
2018-02-01T08:10:21.921Z,7.57
2018-02-01T08:11:26.115Z,8.05
2018-02-01T08:12:30.321Z,7.43
2018-02-01T08:13:35.279Z,7.22
2018-02-01T08:14:39.726Z,7.87
2018-02-01T08:15:44.140Z,9.15
2018-02-01T08:16:48.545Z,7.80
2018-02-01T08:17:52.756Z,8.93
2018-02-01T08:18:56.923Z,6.65
2018-02-01T08:20:01.880Z,6.87
2018-02-01T08:21:06.068Z,7.62
2018-02-01T08:22:11.107Z,7.43
2018-02-01T08:23:15.431Z,8.18
2018-02-01T08:24:19.690Z,6.57
2018-02-01T08:25:23.916Z,8.35
2018-02-01T08:26:28.861Z,6.78
2018-02-01T08:27:33.055Z,6.10
2018-02-01T08:28:38.044Z,6.80
2018-02-01T08:29:43.208Z,7.30
2018-02-01T08:30:48.013Z,5.85
2018-02-01T08:31:52.276Z,6.20
2018-02-01T08:32:56.448Z,7.50
2018-02-01T08:34:00.660Z,6.22
2018-02-01T08:35:04.964Z,7.10
2018-02-01T08:36:11.572Z,6.32
2018-02-01T08:37:15.904Z,6.12
2018-02-01T08:38:20.191Z,6.45
2018-02-01T08:39:25.152Z,6.50
2018-02-01T08:40:29.385Z,6.97
2018-02-01T08:41:33.642Z,5.93
2018-02-01T08:42:37.817Z,7.07
2018-02-01T08:43:42.487Z,6.05
2018-02-01T08:44:47.603Z,6.30
2018-02-01T08:45:51.895Z,6.27
2018-02-01T08:46:56.068Z,6.05
2018-02-01T08:48:00.237Z,5.53
2018-02-01T08:49:04.494Z,6.00
2018-02-01T08:50:08.759Z,6.62
2018-02-01T08:51:13.091Z,6.28
2018-02-01T08:52:17.481Z,5.93
2018-02-01T08:53:22.421Z,5.93
2018-02-01T08:54:26.662Z,6.32
2018-02-01T08:55:30.895Z,5.27
2018-02-01T08:56:35.079Z,6.80
2018-02-01T08:57:39.314Z,6.95
2018-02-01T08:58:43.572Z,6.00
2018-02-01T08:59:48.594Z,6.43
2018-02-01T09:00:53.631Z,6.60
2018-02-01T09:01:58.564Z,5.50
2018-02-01T09:03:03.493Z,5.17
2018-02-01T09:04:08.431Z,5.43
2018-02-01T09:05:13.525Z,5.70
2018-02-01T09:06:17.776Z,6.20
2018-02-01T09:07:21.959Z,5.87
2018-02-01T09:08:26.163Z,5.90
2018-02-01T09:09:31.119Z,4.97
2018-02-01T09:10:35.310Z,5.80
2018-02-01T09:11:40.441Z,5.00
2018-02-01T09:12:44.728Z,5.47
2018-02-01T09:13:48.986Z,5.50
2018-02-01T09:14:54.124Z,4.50
2018-02-01T09:15:58.345Z,5.33
2018-02-01T09:17:02.559Z,4.73
2018-02-01T09:18:06.754Z,6.00
2018-02-01T09:19:11.147Z,4.80
2018-02-01T09:20:16.045Z,5.12
2018-02-01T09:21:20.274Z,5.70
2018-02-01T09:22:25.239Z,4.90
2018-02-01T09:23:29.456Z,5.27
2018-02-01T09:24:33.691Z,5.47
2018-02-01T09:25:37.861Z,4.20
2018-02-01T09:26:42.261Z,4.18
2018-02-01T09:27:46.756Z,4.73
2018-02-01T09:28:51.907Z,4.70
2018-02-01T09:29:56.858Z,5.23
2018-02-01T09:31:01.076Z,5.55
2018-02-01T09:32:05.289Z,4.90
2018-02-01T09:33:09.518Z,4.50
2018-02-01T09:34:13.977Z,4.30
2018-02-01T09:35:19.160Z,3.35
2018-02-01T09:36:23.699Z,4.97
2018-02-01T09:37:27.896Z,3.87
2018-02-01T09:38:32.109Z,3.70
2018-02-01T09:39:36.312Z,4.78
2018-02-01T09:40:41.204Z,4.45
2018-02-01T09:41:45.531Z,4.87
2018-02-01T09:42:49.848Z,3.55
2018-02-01T09:43:54.025Z,4.30
2018-02-01T09:44:58.992Z,4.47
2018-02-01T09:46:03.297Z,4.97
2018-02-01T09:47:07.520Z,4.50
2018-02-01T09:48:12.119Z,4.83
2018-02-01T09:49:16.471Z,4.13
2018-02-01T09:50:21.596Z,4.45
2018-02-01T09:51:25.791Z,4.65
2018-02-01T09:52:29.963Z,4.25
2018-02-01T09:53:34.158Z,4.60
2018-02-01T09:54:39.042Z,4.18
2018-02-01T09:55:44.397Z,4.53
2018-02-01T09:56:48.633Z,4.32
2018-02-01T09:57:52.847Z,4.53
2018-02-01T09:58:57.015Z,4.40
2018-02-01T10:00:01.208Z,5.00
2018-02-01T10:01:05.456Z,4.80
2018-02-01T10:02:10.249Z,4.97
2018-02-01T10:03:14.505Z,4.53
2018-02-01T10:04:18.762Z,5.40
2018-02-01T10:05:23.077Z,4.60
2018-02-01T10:06:28.211Z,4.70
2018-02-01T10:07:32.485Z,5.20
2018-02-01T10:08:36.674Z,5.77
2018-02-01T10:09:42.378Z,5.43
2018-02-01T10:10:48.475Z,5.35
2018-02-01T10:11:52.723Z,6.00
2018-02-01T10:12:56.944Z,6.75
2018-02-01T10:14:01.919Z,6.40
2018-02-01T10:15:06.088Z,6.57
2018-02-01T10:16:10.693Z,6.07
2018-02-01T10:17:15.810Z,6.28
2018-02-01T10:18:20.969Z,7.25
2018-02-01T10:19:25.172Z,6.90
2018-02-01T10:20:30.123Z,6.72
2018-02-01T10:21:34.322Z,7.25
2018-02-01T10:22:38.676Z,6.93
2018-02-01T10:23:43.024Z,8.30
2018-02-01T10:24:47.482Z,7.17
2018-02-01T10:25:51.692Z,8.63
2018-02-01T10:26:55.880Z,7.47
2018-02-01T10:28:00.930Z,8.80
2018-02-01T10:29:05.107Z,7.10
2018-02-01T10:30:09.943Z,7.77
2018-02-01T10:31:14.340Z,7.78
2018-02-01T10:32:18.885Z,8.07
2018-02-01T10:33:23.193Z,9.40
2018-02-01T10:34:27.428Z,7.47
2018-02-01T10:35:31.642Z,9.10
2018-02-01T10:36:35.872Z,8.60
2018-02-01T10:37:40.192Z,8.10
2018-02-01T10:38:45.008Z,7.72
2018-02-01T10:39:49.610Z,8.77
2018-02-01T10:40:53.803Z,8.75
2018-02-01T10:41:57.981Z,10.20
2018-02-01T10:43:02.183Z,10.05
2018-02-01T10:44:06.379Z,8.50
2018-02-01T10:45:11.429Z,8.55
2018-02-01T10:46:16.567Z,9.10
2018-02-01T10:47:21.544Z,9.57
2018-02-01T10:48:25.767Z,8.93
2018-02-01T10:49:29.973Z,8.32
2018-02-01T10:50:34.582Z,9.48
2018-02-01T10:51:38.785Z,10.83
2018-02-01T10:52:43.344Z,9.45
2018-02-01T10:53:47.770Z,10.90
2018-02-01T10:54:52.096Z,9.90
2018-02-01T10:55:56.311Z,9.07
2018-02-01T10:57:01.300Z,9.30
2018-02-01T10:58:05.523Z,9.55
2018-02-01T10:59:09.997Z,10.45
2018-02-01T11:00:14.399Z,9.37
2018-02-01T11:01:19.549Z,10.77
2018-02-01T11:02:23.723Z,8.88
2018-02-01T11:03:28.656Z,8.70
2018-02-01T11:04:33.611Z,9.32
2018-02-01T11:05:37.812Z,9.63
2018-02-01T11:06:42.024Z,8.60
2018-02-01T11:07:46.859Z,9.32
2018-02-01T11:08:51.731Z,9.00
2018-02-01T11:09:55.951Z,9.65
2018-02-01T11:11:00.137Z,9.97
2018-02-01T11:12:04.309Z,10.30
2018-02-01T11:13:08.493Z,10.70
2018-02-01T11:14:12.802Z,10.10
2018-02-01T11:15:18.018Z,10.50
2018-02-01T11:16:22.468Z,10.52
2018-02-01T11:17:27.455Z,9.65
2018-02-01T11:18:31.659Z,10.02
2018-02-01T11:19:35.904Z,11.88
2018-02-01T11:20:40.187Z,10.10
2018-02-01T11:21:44.653Z,10.07
2018-02-01T11:22:49.090Z,10.97
2018-02-01T11:23:53.269Z,9.75
2018-02-01T11:24:58.324Z,11.00
2018-02-01T11:26:02.559Z,9.80
2018-02-01T11:27:06.744Z,11.07
2018-02-01T11:28:11.015Z,11.10
2018-02-01T11:29:16.191Z,9.82
2018-02-01T11:30:20.414Z,10.80
2018-02-01T11:31:24.602Z,9.90
2018-02-01T11:32:29.539Z,10.67
2018-02-01T11:33:33.730Z,11.27
2018-02-01T11:34:38.689Z,10.98
2018-02-01T11:35:44.007Z,11.57
2018-02-01T11:36:49.256Z,12.15
2018-02-01T11:37:53.464Z,10.90
2018-02-01T11:38:57.641Z,9.77
2018-02-01T11:40:01.839Z,11.10
2018-02-01T11:41:06.069Z,12.40
2018-02-01T11:42:10.427Z,10.70
2018-02-01T11:43:14.839Z,11.00
2018-02-01T11:44:19.188Z,11.33
2018-02-01T11:45:23.387Z,11.93
2018-02-01T11:46:27.611Z,12.27
2018-02-01T11:47:31.814Z,12.00
2018-02-01T11:48:36.016Z,12.98
2018-02-01T11:49:41.070Z,11.33
2018-02-01T11:50:45.735Z,11.03
2018-02-01T11:51:49.953Z,12.87
2018-02-01T11:52:54.150Z,11.25
2018-02-01T11:53:58.352Z,11.73
2018-02-01T11:55:03.285Z,12.87
2018-02-01T11:56:07.508Z,10.97
2018-02-01T11:57:11.827Z,12.23
2018-02-01T11:58:16.124Z,12.93
2018-02-01T11:59:20.361Z,13.27
2018-02-01T12:00:24.571Z,13.30
2018-02-01T12:01:28.752Z,11.00
2018-02-01T12:02:32.956Z,12.50
2018-02-01T12:03:37.972Z,12.40
2018-02-01T12:04:43.512Z,12.70
2018-02-01T12:05:48.660Z,12.00
2018-02-01T12:06:53.672Z,12.87
2018-02-01T12:07:57.877Z,11.83
2018-02-01T12:09:02.106Z,12.45
2018-02-01T12:10:07.049Z,12.55
2018-02-01T12:11:12.167Z,12.33
2018-02-01T12:12:16.407Z,13.27
2018-02-01T12:13:20.680Z,12.45
2018-02-01T12:14:25.652Z,11.33
2018-02-01T12:15:29.881Z,12.25
2018-02-01T12:16:34.083Z,11.53
2018-02-01T12:17:38.269Z,11.83
2018-02-01T12:18:43.125Z,12.77
2018-02-01T12:19:47.406Z,13.07
2018-02-01T12:20:52.181Z,13.20
2018-02-01T12:21:56.385Z,14.03
2018-02-01T12:23:00.561Z,13.80
2018-02-01T12:24:04.808Z,12.10
2018-02-01T12:25:09.757Z,12.52
2018-02-01T12:26:14.719Z,13.03
2018-02-01T12:27:19.269Z,12.20
2018-02-01T12:28:24.247Z,12.00
2018-02-01T12:29:29.199Z,13.40
2018-02-01T12:30:33.405Z,11.73
2018-02-01T12:31:37.600Z,11.95
2018-02-01T12:32:42.560Z,13.07
2018-02-01T12:33:46.862Z,12.25
2018-02-01T12:34:51.883Z,10.93
2018-02-01T12:35:56.079Z,12.23
2018-02-01T12:37:01.039Z,12.97
2018-02-01T12:38:05.236Z,12.45
2018-02-01T12:39:10.564Z,11.80
2018-02-01T12:40:15.672Z,11.70
2018-02-01T12:41:21.059Z,13.40
2018-02-01T12:42:25.359Z,12.48
2018-02-01T12:43:29.525Z,12.10
2018-02-01T12:44:33.724Z,13.30
2018-02-01T12:45:37.927Z,12.93
2018-02-01T12:46:42.165Z,14.15
2018-02-01T12:47:46.466Z,12.18
2018-02-01T12:48:50.786Z,13.18
2018-02-01T12:49:54.986Z,13.57
2018-02-01T12:50:59.187Z,13.20
2018-02-01T12:52:03.411Z,12.95
2018-02-01T12:53:07.609Z,12.80
2018-02-01T12:54:11.853Z,13.43
2018-02-01T12:55:16.849Z,13.20
2018-02-01T12:56:21.060Z,12.30
2018-02-01T12:57:25.284Z,12.40
2018-02-01T12:58:29.492Z,13.33
2018-02-01T12:59:33.728Z,13.55
2018-02-01T13:00:38.886Z,15.07
2018-02-01T13:01:43.335Z,15.10
2018-02-01T13:02:48.983Z,13.47
2018-02-01T13:03:53.466Z,11.82
2018-02-01T13:04:57.686Z,12.73
2018-02-01T13:06:01.927Z,10.00
2018-02-01T13:07:06.127Z,10.55
2018-02-01T13:08:10.578Z,10.63
2018-02-01T13:09:14.888Z,10.32
2018-02-01T13:10:19.908Z,10.48
2018-02-01T13:11:24.076Z,9.97
2018-02-01T13:12:28.281Z,10.30
2018-02-01T13:13:32.506Z,9.87
2018-02-01T13:14:36.709Z,10.70
2018-02-01T13:15:42.906Z,12.20
2018-02-01T13:16:47.477Z,11.40
2018-02-01T13:17:51.919Z,11.40
2018-02-01T13:18:56.159Z,12.45
2018-02-01T13:20:01.156Z,11.70
2018-02-01T13:21:05.361Z,10.85
2018-02-01T13:22:09.860Z,11.40
2018-02-01T13:23:14.972Z,11.90
2018-02-01T13:24:20.024Z,10.00
2018-02-01T13:25:24.286Z,10.85
2018-02-01T13:26:28.495Z,11.50
2018-02-01T13:27:32.705Z,10.60
2018-02-01T13:28:36.898Z,10.68
2018-02-01T13:29:41.665Z,10.57
2018-02-01T13:30:46.276Z,11.20
2018-02-01T13:31:52.120Z,11.63
2018-02-01T13:32:56.300Z,11.73
2018-02-01T13:34:00.492Z,10.50
2018-02-01T13:35:04.749Z,11.20
2018-02-01T13:36:09.062Z,11.70
2018-02-01T13:37:13.937Z,11.20
2018-02-01T13:38:18.201Z,11.65
2018-02-01T13:39:23.158Z,11.70
2018-02-01T13:40:28.123Z,11.77
2018-02-01T13:41:32.370Z,10.82
2018-02-01T13:42:36.594Z,10.57
2018-02-01T13:43:41.838Z,10.63
2018-02-01T13:44:46.371Z,10.40
2018-02-01T13:45:50.625Z,9.95
2018-02-01T13:46:54.825Z,9.27
2018-02-01T13:47:59.194Z,9.65
2018-02-01T13:49:04.146Z,8.88
2018-02-01T13:50:08.319Z,9.77
2018-02-01T13:51:13.996Z,9.70
2018-02-01T13:52:18.227Z,10.05
2018-02-01T13:53:22.575Z,10.07
2018-02-01T13:54:26.780Z,8.90
2018-02-01T13:55:30.983Z,10.20
2018-02-01T13:56:35.186Z,9.40
2018-02-01T13:57:40.660Z,11.27
2018-02-01T13:58:45.765Z,10.10
2018-02-01T13:59:49.959Z,10.17
2018-02-01T14:00:54.139Z,9.40
2018-02-01T14:01:58.336Z,9.77
2018-02-01T14:03:03.307Z,10.73
2018-02-01T14:04:07.551Z,11.10